Sumifukumaru No.5 — JD3058 — position and weather

sailwx.info

Track history (hours):
 
Tides and Currents Weather Stations Pressure Air Temp Water Temp Dewpoint Dewpoint Depression Visibility Wind Speed Wind Dir Waves Ship Positions

Sumifukumaru No.5

Last reported at 2018-Jun-17 23:57 UTC. Time now 2018-Jun-18 00:22 UTC.
Position N 35°28' E 139°48'.

Length 75 m; draft 4.4 m.

Type: Cargo ship. MMSI: 431001371.

Date/timePositionNaut miles runAvg speedWind from/ knotsBaromVisibWave heightAir tempDewpointWater temp
2018-Jun-17 23:57N 35°28' E 139°48'0 0.1
2018-Jun-17 23:09N 35°28' E 139°48'0 0.0
2018-Jun-17 22:54N 35°28' E 139°48'0 0.0
2018-Jun-17 22:27N 35°28' E 139°48'0 0.0
2018-Jun-17 20:45N 35°29' E 139°48'0 0.0
2018-Jun-17 20:27N 35°29' E 139°48'0 0.0
2018-Jun-17 20:00N 35°29' E 139°48'0 0.0
2018-Jun-17 19:27N 35°29' E 139°48'0 0.0
2018-Jun-17 18:57N 35°29' E 139°48'0 0.0
2018-Jun-17 18:30N 35°29' E 139°48'0 0.0
2018-Jun-17 17:27N 35°29' E 139°48'0 0.0
2018-Jun-17 16:57N 35°29' E 139°48'0 0.1
2018-Jun-17 16:30N 35°28' E 139°48'0 0.0
2018-Jun-17 16:00N 35°28' E 139°48'0 0.0
2018-Jun-17 15:30N 35°28' E 139°48'0 0.0
2018-Jun-17 15:00N 35°28' E 139°48'0 0.0
2018-Jun-17 14:30N 35°29' E 139°48'0 0.0
2018-Jun-17 13:51N 35°29' E 139°48'0 0.0
2018-Jun-17 13:27N 35°29' E 139°48'0 0.0
2018-Jun-17 13:00N 35°29' E 139°48'0 0.0
2018-Jun-17 10:00N 35°29' E 139°48'14 2.3
2018-Jun-17 03:42N 35°41' E 139°58'5 0.7
2018-Jun-16 21:02N 35°36' E 139°59'411.7
2018-Jun-16 20:40N 35°33' E 139°55'211.5
2018-Jun-16 20:30N 35°31' E 139°54'611.7
2018-Jun-16 20:00N 35°27' E 139°49'611.6
2018-Jun-16 19:30N 35°22' E 139°45'610.8
2018-Jun-16 18:59N 35°16' E 139°46'24810.2
2018-Jun-15 18:42N 33°51' E 135°03'212.6
2018-Jun-15 18:30N 33°53' E 135°02'612.4
2018-Jun-15 18:00N 33°59' E 135°02'612.1
2018-Jun-15 17:30N 34°05' E 135°02'711.3
2018-Jun-15 16:54N 34°10' E 135°08'0 0.2
2018-Jun-15 16:30N 34°10' E 135°08'0 0.0
2018-Jun-15 15:56N 34°10' E 135°08'0 0.0
2018-Jun-15 15:26N 34°10' E 135°08'0 0.0
2018-Jun-15 14:56N 34°10' E 135°08'0 0.0
2018-Jun-15 14:29N 34°10' E 135°08'0 0.0
2018-Jun-15 13:56N 34°10' E 135°08'0 0.0
2018-Jun-15 13:26N 34°10' E 135°08'0 0.1
2018-Jun-15 12:56N 34°10' E 135°08'0 0.0
2018-Jun-15 12:29N 34°10' E 135°08'0 0.0
2018-Jun-15 11:56N 34°10' E 135°08'0 0.0
2018-Jun-15 11:29N 34°10' E 135°08'0 0.1
2018-Jun-15 10:50N 34°10' E 135°08'0 0.0
2018-Jun-15 10:29N 34°10' E 135°08'0 0.0
2018-Jun-15 09:59N 34°10' E 135°08'0 0.1
2018-Jun-15 09:29N 34°10' E 135°08'0 0.0
2018-Jun-15 08:59N 34°10' E 135°08'0 0.0
2018-Jun-15 08:29N 34°10' E 135°08'0 0.1
2018-Jun-15 07:44N 34°10' E 135°08'0 0.0
2018-Jun-15 07:29N 34°10' E 135°08'0 0.0
2018-Jun-15 06:56N 34°10' E 135°08'0 0.0
2018-Jun-15 06:14N 34°10' E 135°08'0 0.0
2018-Jun-15 05:56N 34°10' E 135°08'0 0.0
2018-Jun-15 05:17N 34°10' E 135°08'0 0.0
2018-Jun-15 04:59N 34°10' E 135°08'0 0.0
2018-Jun-15 04:29N 34°10' E 135°08'0 0.1
2018-Jun-15 03:59N 34°10' E 135°08'0 0.0
2018-Jun-15 03:26N 34°10' E 135°08'0 0.0
2018-Jun-15 02:58N 34°10' E 135°08'0 0.1
2018-Jun-15 02:25N 34°10' E 135°08'3 7.4
2018-Jun-15 02:00N 34°09' E 135°04'611.3
2018-Jun-15 01:30N 34°08' E 134°58'611.0
2018-Jun-15 01:00N 34°07' E 134°51'510.9
2018-Jun-15 00:30N 34°08' E 134°45'611.8
2018-Jun-15 00:00N 34°13' E 134°40'910.5
2018-Jun-14 23:07N 34°18' E 134°31'110.6
2018-Jun-14 22:59N 34°18' E 134°29'  
Track history (hours):
 
Tides and Currents Weather Stations Pressure Air Temp Water Temp Dewpoint Dewpoint Depression Visibility Wind Speed Wind Dir Waves Ship Positions

Sumifukumaru No.5

Last reported at 2018-Jun-17 23:57 UTC. Time now 2018-Jun-18 00:22 UTC.
Position N 35°28' E 139°48'.

Length 75 m; draft 4.4 m.

Type: Cargo ship. MMSI: 431001371.

Date/timePositionNaut miles runAvg speedWind from/ knotsBaromVisibWave heightAir tempDewpointWater temp
2018-Jun-17 23:57N 35°28' E 139°48'0 0.1
2018-Jun-17 23:09N 35°28' E 139°48'0 0.0
2018-Jun-17 22:54N 35°28' E 139°48'0 0.0
2018-Jun-17 22:27N 35°28' E 139°48'0 0.0
2018-Jun-17 20:45N 35°29' E 139°48'0 0.0
2018-Jun-17 20:27N 35°29' E 139°48'0 0.0
2018-Jun-17 20:00N 35°29' E 139°48'0 0.0
2018-Jun-17 19:27N 35°29' E 139°48'0 0.0
2018-Jun-17 18:57N 35°29' E 139°48'0 0.0
2018-Jun-17 18:30N 35°29' E 139°48'0 0.0
2018-Jun-17 17:27N 35°29' E 139°48'0 0.0
2018-Jun-17 16:57N 35°29' E 139°48'0 0.1
2018-Jun-17 16:30N 35°28' E 139°48'0 0.0
2018-Jun-17 16:00N 35°28' E 139°48'0 0.0
2018-Jun-17 15:30N 35°28' E 139°48'0 0.0
2018-Jun-17 15:00N 35°28' E 139°48'0 0.0
2018-Jun-17 14:30N 35°29' E 139°48'0 0.0
2018-Jun-17 13:51N 35°29' E 139°48'0 0.0
2018-Jun-17 13:27N 35°29' E 139°48'0 0.0
2018-Jun-17 13:00N 35°29' E 139°48'0 0.0
2018-Jun-17 10:00N 35°29' E 139°48'14 2.3
2018-Jun-17 03:42N 35°41' E 139°58'5 0.7
2018-Jun-16 21:02N 35°36' E 139°59'411.7
2018-Jun-16 20:40N 35°33' E 139°55'211.5
2018-Jun-16 20:30N 35°31' E 139°54'611.7
2018-Jun-16 20:00N 35°27' E 139°49'611.6
2018-Jun-16 19:30N 35°22' E 139°45'610.8
2018-Jun-16 18:59N 35°16' E 139°46'24810.2
2018-Jun-15 18:42N 33°51' E 135°03'212.6
2018-Jun-15 18:30N 33°53' E 135°02'612.4
2018-Jun-15 18:00N 33°59' E 135°02'612.1
2018-Jun-15 17:30N 34°05' E 135°02'711.3
2018-Jun-15 16:54N 34°10' E 135°08'0 0.2
2018-Jun-15 16:30N 34°10' E 135°08'0 0.0
2018-Jun-15 15:56N 34°10' E 135°08'0 0.0
2018-Jun-15 15:26N 34°10' E 135°08'0 0.0
2018-Jun-15 14:56N 34°10' E 135°08'0 0.0
2018-Jun-15 14:29N 34°10' E 135°08'0 0.0
2018-Jun-15 13:56N 34°10' E 135°08'0 0.0
2018-Jun-15 13:26N 34°10' E 135°08'0 0.1
2018-Jun-15 12:56N 34°10' E 135°08'0 0.0
2018-Jun-15 12:29N 34°10' E 135°08'0 0.0
2018-Jun-15 11:56N 34°10' E 135°08'0 0.0
2018-Jun-15 11:29N 34°10' E 135°08'0 0.1
2018-Jun-15 10:50N 34°10' E 135°08'0 0.0
2018-Jun-15 10:29N 34°10' E 135°08'0 0.0
2018-Jun-15 09:59N 34°10' E 135°08'0 0.1
2018-Jun-15 09:29N 34°10' E 135°08'0 0.0
2018-Jun-15 08:59N 34°10' E 135°08'0 0.0
2018-Jun-15 08:29N 34°10' E 135°08'0 0.1
2018-Jun-15 07:44N 34°10' E 135°08'0 0.0
2018-Jun-15 07:29N 34°10' E 135°08'0 0.0
2018-Jun-15 06:56N 34°10' E 135°08'0 0.0
2018-Jun-15 06:14N 34°10' E 135°08'0 0.0
2018-Jun-15 05:56N 34°10' E 135°08'0 0.0
2018-Jun-15 05:17N 34°10' E 135°08'0 0.0
2018-Jun-15 04:59N 34°10' E 135°08'0 0.0
2018-Jun-15 04:29N 34°10' E 135°08'0 0.1
2018-Jun-15 03:59N 34°10' E 135°08'0 0.0
2018-Jun-15 03:26N 34°10' E 135°08'0 0.0
2018-Jun-15 02:58N 34°10' E 135°08'0 0.1
2018-Jun-15 02:25N 34°10' E 135°08'3 7.4
2018-Jun-15 02:00N 34°09' E 135°04'611.3
2018-Jun-15 01:30N 34°08' E 134°58'611.0
2018-Jun-15 01:00N 34°07' E 134°51'510.9
2018-Jun-15 00:30N 34°08' E 134°45'611.8
2018-Jun-15 00:00N 34°13' E 134°40'910.5
2018-Jun-14 23:07N 34°18' E 134°31'110.6
2018-Jun-14 22:59N 34°18' E 134°29'  

Dump ship's entire track history